sensor_id;sensor_type;location;lat;lon;timestamp;pressure;altitude;pressure_sealevel;temperature;humidity
29549;BME280;16487;53.094;8.800;2023-05-19T00:02:28;102192.56;;;13.92;100.00
29549;BME280;16487;53.094;8.800;2023-05-19T00:04:56;102159.41;;;13.67;100.00
29549;BME280;16487;53.094;8.800;2023-05-19T00:07:27;102176.69;;;13.85;100.00
29549;BME280;16487;53.094;8.800;2023-05-19T00:09:57;102187.59;;;13.79;100.00
29549;BME280;16487;53.094;8.800;2023-05-19T00:12:24;102204.34;;;14.03;100.00
29549;BME280;16487;53.094;8.800;2023-05-19T00:14:52;102232.06;;;13.77;100.00
29549;BME280;16487;53.094;8.800;2023-05-19T00:17:20;102207.22;;;13.79;100.00
29549;BME280;16487;53.094;8.800;2023-05-19T00:19:49;102203.44;;;13.47;100.00
29549;BME280;16487;53.094;8.800;2023-05-19T00:22:17;102199.63;;;13.57;100.00
29549;BME280;16487;53.094;8.800;2023-05-19T00:24:44;102202.31;;;13.41;100.00
29549;BME280;16487;53.094;8.800;2023-05-19T00:27:11;102177.09;;;13.64;100.00
29549;BME280;16487;53.094;8.800;2023-05-19T00:29:39;102194.59;;;13.25;100.00
29549;BME280;16487;53.094;8.800;2023-05-19T00:32:06;102189.00;;;13.48;100.00
29549;BME280;16487;53.094;8.800;2023-05-19T00:34:34;102180.13;;;13.07;100.00
29549;BME280;16487;53.094;8.800;2023-05-19T00:37:02;102163.75;;;13.29;100.00
29549;BME280;16487;53.094;8.800;2023-05-19T00:39:30;102171.22;;;13.35;100.00
29549;BME280;16487;53.094;8.800;2023-05-19T00:41:57;102159.78;;;13.03;100.00
29549;BME280;16487;53.094;8.800;2023-05-19T00:44:25;102158.00;;;13.13;100.00
29549;BME280;16487;53.094;8.800;2023-05-19T00:46:52;102152.25;;;12.74;100.00
29549;BME280;16487;53.094;8.800;2023-05-19T00:49:20;102111.94;;;12.94;100.00
29549;BME280;16487;53.094;8.800;2023-05-19T00:51:47;102109.31;;;12.84;100.00
29549;BME280;16487;53.094;8.800;2023-05-19T00:54:17;102112.00;;;12.91;100.00
29549;BME280;16487;53.094;8.800;2023-05-19T00:56:44;102106.38;;;13.37;100.00
29549;BME280;16487;53.094;8.800;2023-05-19T00:59:12;102134.75;;;13.39;100.00
29549;BME280;16487;53.094;8.800;2023-05-19T01:01:40;102140.03;;;13.33;100.00
29549;BME280;16487;53.094;8.800;2023-05-19T01:04:07;102127.03;;;13.00;100.00
29549;BME280;16487;53.094;8.800;2023-05-19T01:06:35;102138.69;;;12.95;100.00
29549;BME280;16487;53.094;8.800;2023-05-19T01:09:03;102142.84;;;12.87;100.00
29549;BME280;16487;53.094;8.800;2023-05-19T01:11:31;102101.50;;;12.48;100.00
29549;BME280;16487;53.094;8.800;2023-05-19T01:13:59;102092.72;;;12.73;100.00
29549;BME280;16487;53.094;8.800;2023-05-19T01:16:31;102098.72;;;12.72;100.00
29549;BME280;16487;53.094;8.800;2023-05-19T01:19:09;102074.72;;;12.24;100.00
29549;BME280;16487;53.094;8.800;2023-05-19T01:22:13;102060.94;;;12.37;100.00
29549;BME280;16487;53.094;8.800;2023-05-19T01:25:25;102032.97;;;12.37;100.00
29549;BME280;16487;53.094;8.800;2023-05-19T01:28:19;102038.47;;;12.44;100.00
29549;BME280;16487;53.094;8.800;2023-05-19T01:30:53;102030.53;;;12.16;100.00
29549;BME280;16487;53.094;8.800;2023-05-19T01:33:23;102033.25;;;12.46;100.00
29549;BME280;16487;53.094;8.800;2023-05-19T01:35:53;102040.03;;;12.45;100.00
29549;BME280;16487;53.094;8.800;2023-05-19T01:38:24;102027.94;;;12.75;100.00
29549;BME280;16487;53.094;8.800;2023-05-19T01:40:53;102052.66;;;12.30;100.00
29549;BME280;16487;53.094;8.800;2023-05-19T01:43:24;102019.94;;;12.04;100.00
29549;BME280;16487;53.094;8.800;2023-05-19T01:45:54;101993.69;;;12.21;100.00
29549;BME280;16487;53.094;8.800;2023-05-19T01:48:24;102023.19;;;12.25;100.00
29549;BME280;16487;53.094;8.800;2023-05-19T01:50:52;102047.09;;;12.53;100.00
29549;BME280;16487;53.094;8.800;2023-05-19T01:53:19;102081.63;;;12.43;100.00
29549;BME280;16487;53.094;8.800;2023-05-19T01:55:48;102080.81;;;12.69;100.00
29549;BME280;16487;53.094;8.800;2023-05-19T01:58:24;102097.22;;;12.14;100.00
29549;BME280;16487;53.094;8.800;2023-05-19T02:01:02;102098.16;;;12.34;100.00
29549;BME280;16487;53.094;8.800;2023-05-19T02:03:47;102099.28;;;12.10;100.00
29549;BME280;16487;53.094;8.800;2023-05-19T02:06:31;102081.84;;;12.29;100.00
29549;BME280;16487;53.094;8.800;2023-05-19T02:09:06;102083.94;;;12.21;100.00
29549;BME280;16487;53.094;8.800;2023-05-19T02:11:37;102111.91;;;12.48;100.00
29549;BME280;16487;53.094;8.800;2023-05-19T02:14:08;102133.06;;;12.49;100.00
29549;BME280;16487;53.094;8.800;2023-05-19T02:16:43;102155.66;;;12.61;100.00
29549;BME280;16487;53.094;8.800;2023-05-19T02:19:20;102171.91;;;12.70;100.00
29549;BME280;16487;53.094;8.800;2023-05-19T02:21:47;102180.03;;;12.34;100.00
29549;BME280;16487;53.094;8.800;2023-05-19T02:24:15;102172.25;;;12.19;100.00
29549;BME280;16487;53.094;8.800;2023-05-19T02:26:42;102173.91;;;12.13;100.00
29549;BME280;16487;53.094;8.800;2023-05-19T02:29:10;102186.44;;;12.01;100.00
29549;BME280;16487;53.094;8.800;2023-05-19T02:31:37;102182.59;;;12.22;100.00
29549;BME280;16487;53.094;8.800;2023-05-19T02:34:07;102189.63;;;12.03;100.00
29549;BME280;16487;53.094;8.800;2023-05-19T02:36:38;102206.53;;;12.23;100.00
29549;BME280;16487;53.094;8.800;2023-05-19T02:39:05;102212.94;;;11.86;100.00
29549;BME280;16487;53.094;8.800;2023-05-19T02:41:33;102208.41;;;11.99;100.00
29549;BME280;16487;53.094;8.800;2023-05-19T02:44:00;102207.25;;;11.97;100.00
29549;BME280;16487;53.094;8.800;2023-05-19T02:46:28;102210.00;;;12.00;100.00
29549;BME280;16487;53.094;8.800;2023-05-19T02:48:55;102244.41;;;11.94;100.00
29549;BME280;16487;53.094;8.800;2023-05-19T02:51:24;102231.81;;;11.79;100.00
29549;BME280;16487;53.094;8.800;2023-05-19T02:53:51;102230.06;;;11.92;100.00
29549;BME280;16487;53.094;8.800;2023-05-19T02:56:19;102243.19;;;11.95;100.00
29549;BME280;16487;53.094;8.800;2023-05-19T02:58:46;102241.69;;;11.87;100.00
29549;BME280;16487;53.094;8.800;2023-05-19T03:01:13;102233.06;;;11.71;100.00
29549;BME280;16487;53.094;8.800;2023-05-19T03:03:41;102243.56;;;11.97;100.00
29549;BME280;16487;53.094;8.800;2023-05-19T03:06:08;102247.06;;;11.64;100.00
29549;BME280;16487;53.094;8.800;2023-05-19T03:08:37;102251.97;;;11.52;100.00
29549;BME280;16487;53.094;8.800;2023-05-19T03:11:08;102257.19;;;11.50;100.00
29549;BME280;16487;53.094;8.800;2023-05-19T03:13:35;102251.19;;;11.52;100.00
29549;BME280;16487;53.094;8.800;2023-05-19T03:16:03;102260.75;;;11.54;100.00
29549;BME280;16487;53.094;8.800;2023-05-19T03:18:31;102264.84;;;11.39;100.00
29549;BME280;16487;53.094;8.800;2023-05-19T03:20:58;102241.34;;;10.86;100.00
29549;BME280;16487;53.094;8.800;2023-05-19T03:23:26;102239.13;;;11.18;100.00
29549;BME280;16487;53.094;8.800;2023-05-19T03:25:54;102266.63;;;11.19;100.00
29549;BME280;16487;53.094;8.800;2023-05-19T03:28:22;102254.69;;;11.15;100.00
29549;BME280;16487;53.094;8.800;2023-05-19T03:30:49;102275.94;;;11.46;100.00
29549;BME280;16487;53.094;8.800;2023-05-19T03:33:20;102275.09;;;11.57;100.00
29549;BME280;16487;53.094;8.800;2023-05-19T03:35:48;102274.72;;;11.54;100.00
29549;BME280;16487;53.094;8.800;2023-05-19T03:38:16;102260.25;;;11.67;100.00
29549;BME280;16487;53.094;8.800;2023-05-19T03:40:50;102297.53;;;11.42;100.00
29549;BME280;16487;53.094;8.800;2023-05-19T03:43:19;102304.41;;;11.82;100.00
29549;BME280;16487;53.094;8.800;2023-05-19T03:45:52;102325.69;;;11.66;100.00
29549;BME280;16487;53.094;8.800;2023-05-19T03:48:38;102353.28;;;12.04;100.00
29549;BME280;16487;53.094;8.800;2023-05-19T03:51:26;102366.47;;;12.00;100.00
29549;BME280;16487;53.094;8.800;2023-05-19T03:53:56;102370.44;;;11.51;100.00
29549;BME280;16487;53.094;8.800;2023-05-19T03:56:24;102359.09;;;11.80;100.00
29549;BME280;16487;53.094;8.800;2023-05-19T03:58:52;102369.91;;;11.74;100.00
29549;BME280;16487;53.094;8.800;2023-05-19T04:01:20;102379.81;;;11.86;100.00
29549;BME280;16487;53.094;8.800;2023-05-19T04:03:47;102382.53;;;11.34;100.00
29549;BME280;16487;53.094;8.800;2023-05-19T04:06:15;102358.00;;;11.63;100.00
29549;BME280;16487;53.094;8.800;2023-05-19T04:08:42;102359.84;;;11.84;100.00
29549;BME280;16487;53.094;8.800;2023-05-19T04:11:10;102376.75;;;11.63;100.00
29549;BME280;16487;53.094;8.800;2023-05-19T04:13:37;102370.84;;;11.53;100.00
29549;BME280;16487;53.094;8.800;2023-05-19T04:16:06;102365.50;;;11.77;100.00
29549;BME280;16487;53.094;8.800;2023-05-19T04:18:34;102378.91;;;11.44;100.00
29549;BME280;16487;53.094;8.800;2023-05-19T04:21:03;102390.69;;;11.73;100.00
29549;BME280;16487;53.094;8.800;2023-05-19T04:23:31;102408.31;;;11.60;100.00
29549;BME280;16487;53.094;8.800;2023-05-19T04:25:59;102423.16;;;12.04;100.00
29549;BME280;16487;53.094;8.800;2023-05-19T04:28:26;102414.03;;;11.93;100.00
29549;BME280;16487;53.094;8.800;2023-05-19T04:30:54;102437.38;;;12.20;100.00
29549;BME280;16487;53.094;8.800;2023-05-19T04:33:23;102448.31;;;12.04;100.00
29549;BME280;16487;53.094;8.800;2023-05-19T04:35:51;102482.06;;;12.27;100.00
29549;BME280;16487;53.094;8.800;2023-05-19T04:38:18;102511.44;;;12.46;100.00
29549;BME280;16487;53.094;8.800;2023-05-19T04:40:47;102550.97;;;12.48;100.00
29549;BME280;16487;53.094;8.800;2023-05-19T04:43:15;102583.56;;;12.14;100.00
29549;BME280;16487;53.094;8.800;2023-05-19T04:45:42;102594.88;;;11.96;100.00
29549;BME280;16487;53.094;8.800;2023-05-19T04:48:11;102591.88;;;12.28;100.00
29549;BME280;16487;53.094;8.800;2023-05-19T04:50:39;102608.41;;;12.05;100.00
29549;BME280;16487;53.094;8.800;2023-05-19T04:53:07;102620.31;;;12.16;100.00
29549;BME280;16487;53.094;8.800;2023-05-19T04:55:35;102626.97;;;12.36;100.00
29549;BME280;16487;53.094;8.800;2023-05-19T04:58:02;102644.56;;;12.33;100.00
29549;BME280;16487;53.094;8.800;2023-05-19T05:00:30;102654.09;;;12.42;100.00
29549;BME280;16487;53.094;8.800;2023-05-19T05:03:02;102666.44;;;12.45;100.00
29549;BME280;16487;53.094;8.800;2023-05-19T05:05:29;102689.38;;;12.84;100.00
29549;BME280;16487;53.094;8.800;2023-05-19T05:07:58;102705.97;;;12.54;100.00
29549;BME280;16487;53.094;8.800;2023-05-19T05:10:28;102700.84;;;12.38;100.00
29549;BME280;16487;53.094;8.800;2023-05-19T05:12:56;102705.06;;;12.67;100.00
29549;BME280;16487;53.094;8.800;2023-05-19T05:15:24;102733.31;;;12.87;100.00
29549;BME280;16487;53.094;8.800;2023-05-19T05:17:52;102739.88;;;12.63;100.00
29549;BME280;16487;53.094;8.800;2023-05-19T05:20:21;102737.22;;;13.07;100.00
29549;BME280;16487;53.094;8.800;2023-05-19T05:22:50;102744.63;;;12.69;100.00
29549;BME280;16487;53.094;8.800;2023-05-19T05:25:20;102753.34;;;12.82;100.00
29549;BME280;16487;53.094;8.800;2023-05-19T05:27:48;102752.28;;;12.65;100.00
29549;BME280;16487;53.094;8.800;2023-05-19T05:30:16;102744.16;;;12.78;100.00
29549;BME280;16487;53.094;8.800;2023-05-19T05:32:44;102747.66;;;12.96;100.00
29549;BME280;16487;53.094;8.800;2023-05-19T05:35:26;102754.00;;;13.07;100.00
29549;BME280;16487;53.094;8.800;2023-05-19T05:37:54;102763.16;;;13.11;100.00
29549;BME280;16487;53.094;8.800;2023-05-19T05:40:22;102766.44;;;13.50;100.00
29549;BME280;16487;53.094;8.800;2023-05-19T05:42:51;102777.44;;;13.27;100.00
29549;BME280;16487;53.094;8.800;2023-05-19T05:45:20;102781.47;;;13.26;100.00
29549;BME280;16487;53.094;8.800;2023-05-19T05:47:49;102768.16;;;13.37;100.00
29549;BME280;16487;53.094;8.800;2023-05-19T05:50:17;102767.78;;;13.35;100.00
29549;BME280;16487;53.094;8.800;2023-05-19T05:52:45;102762.56;;;13.78;100.00
29549;BME280;16487;53.094;8.800;2023-05-19T05:55:15;102780.72;;;14.37;100.00
29549;BME280;16487;53.094;8.800;2023-05-19T05:57:45;102789.97;;;14.01;100.00
29549;BME280;16487;53.094;8.800;2023-05-19T06:00:15;102797.41;;;14.14;100.00
29549;BME280;16487;53.094;8.800;2023-05-19T06:02:50;102799.97;;;14.39;100.00
29549;BME280;16487;53.094;8.800;2023-05-19T06:05:19;102812.78;;;14.40;100.00
29549;BME280;16487;53.094;8.800;2023-05-19T06:07:48;102816.00;;;14.38;100.00
29549;BME280;16487;53.094;8.800;2023-05-19T06:10:23;102814.47;;;14.64;100.00
29549;BME280;16487;53.094;8.800;2023-05-19T06:12:52;102818.91;;;14.61;100.00
29549;BME280;16487;53.094;8.800;2023-05-19T06:15:20;102819.16;;;14.44;100.00
29549;BME280;16487;53.094;8.800;2023-05-19T06:18:02;102813.44;;;14.81;100.00
29549;BME280;16487;53.094;8.800;2023-05-19T06:20:30;102811.19;;;14.69;100.00
29549;BME280;16487;53.094;8.800;2023-05-19T06:22:59;102820.22;;;14.83;100.00
29549;BME280;16487;53.094;8.800;2023-05-19T06:25:28;102813.34;;;14.88;100.00
29549;BME280;16487;53.094;8.800;2023-05-19T06:27:58;102822.09;;;15.20;100.00
29549;BME280;16487;53.094;8.800;2023-05-19T06:30:25;102834.44;;;15.53;100.00
29549;BME280;16487;53.094;8.800;2023-05-19T06:33:01;102839.94;;;15.83;100.00
29549;BME280;16487;53.094;8.800;2023-05-19T06:35:29;102840.84;;;15.53;100.00
29549;BME280;16487;53.094;8.800;2023-05-19T06:37:57;102839.16;;;15.59;100.00
29549;BME280;16487;53.094;8.800;2023-05-19T06:40:24;102840.50;;;15.74;100.00
29549;BME280;16487;53.094;8.800;2023-05-19T06:42:53;102849.66;;;16.01;100.00
29549;BME280;16487;53.094;8.800;2023-05-19T06:45:42;102848.78;;;16.04;100.00
29549;BME280;16487;53.094;8.800;2023-05-19T06:48:10;102845.19;;;15.81;100.00
29549;BME280;16487;53.094;8.800;2023-05-19T06:50:38;102855.91;;;15.66;100.00
29549;BME280;16487;53.094;8.800;2023-05-19T06:53:06;102848.97;;;16.37;100.00
29549;BME280;16487;53.094;8.800;2023-05-19T06:55:34;102855.84;;;16.94;100.00
29549;BME280;16487;53.094;8.800;2023-05-19T06:58:14;102860.56;;;16.62;100.00
29549;BME280;16487;53.094;8.800;2023-05-19T07:00:43;102870.50;;;16.47;100.00
29549;BME280;16487;53.094;8.800;2023-05-19T07:03:13;102870.00;;;16.91;100.00
29549;BME280;16487;53.094;8.800;2023-05-19T07:05:41;102883.25;;;17.10;100.00
29549;BME280;16487;53.094;8.800;2023-05-19T07:08:10;102872.28;;;17.15;100.00
29549;BME280;16487;53.094;8.800;2023-05-19T07:10:38;102882.50;;;17.26;100.00
29549;BME280;16487;53.094;8.800;2023-05-19T07:13:10;102882.13;;;17.75;100.00
29549;BME280;16487;53.094;8.800;2023-05-19T07:15:38;102882.56;;;17.58;100.00
29549;BME280;16487;53.094;8.800;2023-05-19T07:18:06;102882.47;;;17.77;100.00
29549;BME280;16487;53.094;8.800;2023-05-19T07:20:35;102885.28;;;17.61;100.00
29549;BME280;16487;53.094;8.800;2023-05-19T07:23:03;102884.59;;;17.89;100.00
29549;BME280;16487;53.094;8.800;2023-05-19T07:25:30;102890.31;;;17.86;100.00
29549;BME280;16487;53.094;8.800;2023-05-19T07:27:58;102893.22;;;17.50;100.00
29549;BME280;16487;53.094;8.800;2023-05-19T07:30:27;102901.88;;;17.75;100.00
29549;BME280;16487;53.094;8.800;2023-05-19T07:32:54;102896.53;;;18.42;100.00
29549;BME280;16487;53.094;8.800;2023-05-19T07:35:25;102887.25;;;18.25;100.00
29549;BME280;16487;53.094;8.800;2023-05-19T07:37:52;102899.59;;;18.02;100.00
29549;BME280;16487;53.094;8.800;2023-05-19T07:40:20;102889.53;;;17.85;100.00
29549;BME280;16487;53.094;8.800;2023-05-19T07:42:48;102892.34;;;17.85;100.00
29549;BME280;16487;53.094;8.800;2023-05-19T07:45:16;102893.91;;;17.54;100.00
29549;BME280;16487;53.094;8.800;2023-05-19T07:47:43;102895.69;;;17.80;100.00
29549;BME280;16487;53.094;8.800;2023-05-19T07:50:10;102890.94;;;18.38;100.00
29549;BME280;16487;53.094;8.800;2023-05-19T07:52:39;102894.25;;;18.04;100.00
29549;BME280;16487;53.094;8.800;2023-05-19T07:55:07;102891.31;;;18.40;100.00
29549;BME280;16487;53.094;8.800;2023-05-19T07:57:34;102890.53;;;18.23;100.00
29549;BME280;16487;53.094;8.800;2023-05-19T08:00:02;102888.31;;;18.47;100.00
29549;BME280;16487;53.094;8.800;2023-05-19T08:02:37;102884.09;;;18.68;100.00
29549;BME280;16487;53.094;8.800;2023-05-19T08:05:06;102893.47;;;18.65;100.00
29549;BME280;16487;53.094;8.800;2023-05-19T08:07:34;102891.50;;;18.62;100.00
29549;BME280;16487;53.094;8.800;2023-05-19T08:10:03;102882.13;;;19.06;100.00
29549;BME280;16487;53.094;8.800;2023-05-19T08:12:30;102891.53;;;19.03;100.00
29549;BME280;16487;53.094;8.800;2023-05-19T08:14:58;102891.47;;;18.49;100.00
29549;BME280;16487;53.094;8.800;2023-05-19T08:17:28;102882.91;;;19.19;100.00
29549;BME280;16487;53.094;8.800;2023-05-19T08:19:55;102874.81;;;19.46;100.00
29549;BME280;16487;53.094;8.800;2023-05-19T08:22:22;102877.50;;;19.62;100.00
29549;BME280;16487;53.094;8.800;2023-05-19T08:24:50;102875.38;;;19.41;100.00
29549;BME280;16487;53.094;8.800;2023-05-19T08:27:19;102878.41;;;19.72;100.00
29549;BME280;16487;53.094;8.800;2023-05-19T08:29:46;102881.38;;;19.68;100.00
29549;BME280;16487;53.094;8.800;2023-05-19T08:32:14;102878.00;;;19.95;100.00
29549;BME280;16487;53.094;8.800;2023-05-19T08:34:41;102878.19;;;19.66;100.00
29549;BME280;16487;53.094;8.800;2023-05-19T08:37:09;102873.16;;;19.95;100.00
29549;BME280;16487;53.094;8.800;2023-05-19T08:39:36;102886.06;;;19.96;100.00
29549;BME280;16487;53.094;8.800;2023-05-19T08:42:04;102875.88;;;19.86;100.00
29549;BME280;16487;53.094;8.800;2023-05-19T08:44:36;102864.09;;;20.78;100.00
29549;BME280;16487;53.094;8.800;2023-05-19T08:47:04;102860.53;;;20.21;100.00
29549;BME280;16487;53.094;8.800;2023-05-19T08:49:42;102871.25;;;19.92;100.00
29549;BME280;16487;53.094;8.800;2023-05-19T08:52:18;102864.28;;;20.18;100.00
29549;BME280;16487;53.094;8.800;2023-05-19T08:54:52;102852.16;;;20.05;100.00
29549;BME280;16487;53.094;8.800;2023-05-19T08:57:21;102846.22;;;19.91;100.00
29549;BME280;16487;53.094;8.800;2023-05-19T08:59:51;102849.09;;;20.12;100.00
29549;BME280;16487;53.094;8.800;2023-05-19T09:02:20;102842.56;;;20.59;100.00
29549;BME280;16487;53.094;8.800;2023-05-19T09:04:48;102838.81;;;20.06;100.00
29549;BME280;16487;53.094;8.800;2023-05-19T09:07:15;102841.09;;;20.76;100.00
29549;BME280;16487;53.094;8.800;2023-05-19T09:09:44;102834.06;;;20.89;100.00
29549;BME280;16487;53.094;8.800;2023-05-19T09:12:12;102822.63;;;21.32;100.00
29549;BME280;16487;53.094;8.800;2023-05-19T09:14:40;102810.50;;;21.32;100.00
29549;BME280;16487;53.094;8.800;2023-05-19T09:17:09;102811.66;;;21.43;100.00
29549;BME280;16487;53.094;8.800;2023-05-19T09:19:41;102802.06;;;21.77;100.00
29549;BME280;16487;53.094;8.800;2023-05-19T09:22:10;102796.72;;;22.42;100.00
29549;BME280;16487;53.094;8.800;2023-05-19T09:24:38;102783.72;;;22.78;100.00
29549;BME280;16487;53.094;8.800;2023-05-19T09:27:05;102771.97;;;23.50;100.00
29549;BME280;16487;53.094;8.800;2023-05-19T09:29:32;102742.91;;;24.95;100.00
29549;BME280;16487;53.094;8.800;2023-05-19T09:32:00;102741.06;;;25.12;100.00
29549;BME280;16487;53.094;8.800;2023-05-19T09:34:39;102732.06;;;25.54;100.00
29549;BME280;16487;53.094;8.800;2023-05-19T09:37:08;102713.13;;;26.84;100.00
29549;BME280;16487;53.094;8.800;2023-05-19T09:39:38;102699.00;;;27.18;100.00
29549;BME280;16487;53.094;8.800;2023-05-19T09:42:06;102731.09;;;24.87;100.00
29549;BME280;16487;53.094;8.800;2023-05-19T09:44:34;102744.75;;;23.58;100.00
29549;BME280;16487;53.094;8.800;2023-05-19T09:47:02;102718.03;;;25.16;100.00
29549;BME280;16487;53.094;8.800;2023-05-19T09:49:29;102699.16;;;25.84;100.00
29549;BME280;16487;53.094;8.800;2023-05-19T09:52:00;102698.28;;;25.98;100.00
29549;BME280;16487;53.094;8.800;2023-05-19T09:54:29;102685.66;;;27.57;100.00
29549;BME280;16487;53.094;8.800;2023-05-19T09:57:00;102687.53;;;26.70;100.00
29549;BME280;16487;53.094;8.800;2023-05-19T09:59:29;102693.00;;;26.11;100.00
29549;BME280;16487;53.094;8.800;2023-05-19T10:02:00;102697.59;;;26.34;100.00
29549;BME280;16487;53.094;8.800;2023-05-19T10:04:29;102722.66;;;24.49;100.00
29549;BME280;16487;53.094;8.800;2023-05-19T10:06:59;102711.59;;;24.22;100.00
29549;BME280;16487;53.094;8.800;2023-05-19T10:09:28;102717.75;;;24.06;100.00
29549;BME280;16487;53.094;8.800;2023-05-19T10:11:56;102690.28;;;25.56;100.00
29549;BME280;16487;53.094;8.800;2023-05-19T10:14:26;102684.91;;;24.54;100.00
29549;BME280;16487;53.094;8.800;2023-05-19T10:16:55;102685.38;;;24.67;100.00
29549;BME280;16487;53.094;8.800;2023-05-19T10:19:24;102683.34;;;24.53;100.00
29549;BME280;16487;53.094;8.800;2023-05-19T10:21:52;102678.84;;;25.16;100.00
29549;BME280;16487;53.094;8.800;2023-05-19T10:24:21;102659.63;;;26.28;100.00
29549;BME280;16487;53.094;8.800;2023-05-19T10:26:53;102654.59;;;25.92;100.00
29549;BME280;16487;53.094;8.800;2023-05-19T10:29:24;102672.03;;;24.93;100.00
29549;BME280;16487;53.094;8.800;2023-05-19T10:31:59;102688.63;;;25.10;100.00
29549;BME280;16487;53.094;8.800;2023-05-19T10:34:51;102665.22;;;25.91;100.00
29549;BME280;16487;53.094;8.800;2023-05-19T10:37:33;102651.91;;;27.19;100.00
29549;BME280;16487;53.094;8.800;2023-05-19T10:40:09;102649.56;;;28.09;100.00
29549;BME280;16487;53.094;8.800;2023-05-19T10:42:44;102609.34;;;28.75;100.00
29549;BME280;16487;53.094;8.800;2023-05-19T10:45:20;102634.97;;;27.96;100.00
29549;BME280;16487;53.094;8.800;2023-05-19T10:47:49;102626.63;;;28.53;100.00
29549;BME280;16487;53.094;8.800;2023-05-19T10:50:17;102634.06;;;27.46;100.00
29549;BME280;16487;53.094;8.800;2023-05-19T10:52:52;102642.75;;;26.67;100.00
29549;BME280;16487;53.094;8.800;2023-05-19T10:55:44;102656.38;;;25.24;100.00
29549;BME280;16487;53.094;8.800;2023-05-19T10:58:12;102652.72;;;25.23;100.00
29549;BME280;16487;53.094;8.800;2023-05-19T11:00:39;102647.94;;;25.35;100.00
29549;BME280;16487;53.094;8.800;2023-05-19T11:03:14;102648.97;;;25.77;100.00
29549;BME280;16487;53.094;8.800;2023-05-19T11:05:41;102654.56;;;24.08;100.00
29549;BME280;16487;53.094;8.800;2023-05-19T11:08:10;102637.16;;;25.64;100.00
29549;BME280;16487;53.094;8.800;2023-05-19T11:10:42;102614.38;;;27.92;100.00
29549;BME280;16487;53.094;8.800;2023-05-19T11:13:19;102622.72;;;27.95;100.00
29549;BME280;16487;53.094;8.800;2023-05-19T11:15:46;102596.44;;;29.15;100.00
29549;BME280;16487;53.094;8.800;2023-05-19T11:18:14;102583.63;;;29.62;100.00
29549;BME280;16487;53.094;8.800;2023-05-19T11:20:42;102600.56;;;28.18;100.00
29549;BME280;16487;53.094;8.800;2023-05-19T11:23:14;102625.22;;;26.90;100.00
29549;BME280;16487;53.094;8.800;2023-05-19T11:25:44;102645.91;;;24.80;100.00
29549;BME280;16487;53.094;8.800;2023-05-19T11:28:15;102659.63;;;24.62;100.00
29549;BME280;16487;53.094;8.800;2023-05-19T11:30:44;102661.50;;;23.92;100.00
29549;BME280;16487;53.094;8.800;2023-05-19T11:33:12;102666.03;;;23.84;100.00
29549;BME280;16487;53.094;8.800;2023-05-19T11:35:40;102659.34;;;23.87;100.00
29549;BME280;16487;53.094;8.800;2023-05-19T11:38:09;102659.38;;;24.31;100.00
29549;BME280;16487;53.094;8.800;2023-05-19T11:40:40;102660.06;;;23.20;100.00
29549;BME280;16487;53.094;8.800;2023-05-19T11:43:09;102658.59;;;24.01;100.00
29549;BME280;16487;53.094;8.800;2023-05-19T11:45:37;102631.19;;;26.19;100.00
29549;BME280;16487;53.094;8.800;2023-05-19T11:48:05;102608.13;;;27.13;100.00
29549;BME280;16487;53.094;8.800;2023-05-19T11:50:34;102618.03;;;28.14;100.00
29549;BME280;16487;53.094;8.800;2023-05-19T11:53:03;102597.19;;;28.08;100.00
29549;BME280;16487;53.094;8.800;2023-05-19T11:55:31;102576.53;;;29.28;100.00
29549;BME280;16487;53.094;8.800;2023-05-19T11:57:59;102613.75;;;26.90;100.00
29549;BME280;16487;53.094;8.800;2023-05-19T12:00:37;102619.19;;;27.42;100.00
29549;BME280;16487;53.094;8.800;2023-05-19T12:03:04;102599.13;;;28.91;100.00
29549;BME280;16487;53.094;8.800;2023-05-19T12:05:36;102586.00;;;29.12;100.00
29549;BME280;16487;53.094;8.800;2023-05-19T12:08:09;102570.31;;;29.07;100.00
29549;BME280;16487;53.094;8.800;2023-05-19T12:10:39;102578.88;;;28.45;100.00
29549;BME280;16487;53.094;8.800;2023-05-19T12:13:07;102563.75;;;29.23;100.00
29549;BME280;16487;53.094;8.800;2023-05-19T12:15:39;102586.97;;;28.46;100.00
29549;BME280;16487;53.094;8.800;2023-05-19T12:18:06;102607.78;;;26.88;100.00
29549;BME280;16487;53.094;8.800;2023-05-19T12:20:36;102619.81;;;25.08;100.00
29549;BME280;16487;53.094;8.800;2023-05-19T12:23:04;102611.25;;;25.28;100.00
29549;BME280;16487;53.094;8.800;2023-05-19T12:25:34;102604.69;;;26.55;100.00
29549;BME280;16487;53.094;8.800;2023-05-19T12:28:02;102583.81;;;27.78;100.00
29549;BME280;16487;53.094;8.800;2023-05-19T12:30:30;102560.28;;;28.73;100.00
29549;BME280;16487;53.094;8.800;2023-05-19T12:33:02;102555.78;;;29.81;100.00
29549;BME280;16487;53.094;8.800;2023-05-19T12:35:30;102532.31;;;30.79;97.77
29549;BME280;16487;53.094;8.800;2023-05-19T12:38:01;102533.19;;;30.20;97.13
29549;BME280;16487;53.094;8.800;2023-05-19T12:40:29;102541.38;;;29.00;97.31
29549;BME280;16487;53.094;8.800;2023-05-19T12:42:57;102555.97;;;27.78;97.14
29549;BME280;16487;53.094;8.800;2023-05-19T12:45:25;102573.44;;;26.94;99.99
29549;BME280;16487;53.094;8.800;2023-05-19T12:47:53;102569.50;;;27.83;100.00
29549;BME280;16487;53.094;8.800;2023-05-19T12:50:28;102542.00;;;28.76;99.33
29549;BME280;16487;53.094;8.800;2023-05-19T12:52:59;102540.13;;;28.90;98.96
29549;BME280;16487;53.094;8.800;2023-05-19T12:55:26;102534.31;;;29.12;97.26